sensor_id;sensor_type;location;lat;lon;timestamp;temperature;humidity
47532;DHT22;33273;52.254;7.988;2023-04-30T00:02:02;5.60;97.90
47532;DHT22;33273;52.254;7.988;2023-04-30T00:04:28;5.70;97.80
47532;DHT22;33273;52.254;7.988;2023-04-30T00:06:55;5.60;97.20
47532;DHT22;33273;52.254;7.988;2023-04-30T00:09:21;5.50;97.60
47532;DHT22;33273;52.254;7.988;2023-04-30T00:11:46;5.40;98.30
47532;DHT22;33273;52.254;7.988;2023-04-30T00:14:12;5.30;99.20
47532;DHT22;33273;52.254;7.988;2023-04-30T00:16:38;5.30;99.30
47532;DHT22;33273;52.254;7.988;2023-04-30T00:19:05;5.30;99.60
47532;DHT22;33273;52.254;7.988;2023-04-30T00:21:31;5.30;99.60
47532;DHT22;33273;52.254;7.988;2023-04-30T00:23:58;5.30;99.90
47532;DHT22;33273;52.254;7.988;2023-04-30T00:26:25;5.20;99.90
47532;DHT22;33273;52.254;7.988;2023-04-30T00:28:52;5.20;99.90
47532;DHT22;33273;52.254;7.988;2023-04-30T00:31:18;5.20;99.90
47532;DHT22;33273;52.254;7.988;2023-04-30T00:33:45;5.20;99.90
47532;DHT22;33273;52.254;7.988;2023-04-30T00:36:11;5.10;99.90
47532;DHT22;33273;52.254;7.988;2023-04-30T00:38:37;5.00;99.90
47532;DHT22;33273;52.254;7.988;2023-04-30T00:41:04;5.00;99.90
47532;DHT22;33273;52.254;7.988;2023-04-30T00:43:30;4.90;99.90
47532;DHT22;33273;52.254;7.988;2023-04-30T00:45:57;5.00;99.90
47532;DHT22;33273;52.254;7.988;2023-04-30T00:48:23;5.00;99.90
47532;DHT22;33273;52.254;7.988;2023-04-30T00:50:50;4.90;99.90
47532;DHT22;33273;52.254;7.988;2023-04-30T00:53:16;4.90;99.90
47532;DHT22;33273;52.254;7.988;2023-04-30T00:55:43;4.90;99.90
47532;DHT22;33273;52.254;7.988;2023-04-30T00:58:09;4.90;99.90
47532;DHT22;33273;52.254;7.988;2023-04-30T01:00:35;4.80;99.90
47532;DHT22;33273;52.254;7.988;2023-04-30T01:03:03;4.70;99.90
47532;DHT22;33273;52.254;7.988;2023-04-30T01:05:28;4.70;99.90
47532;DHT22;33273;52.254;7.988;2023-04-30T01:07:55;4.70;99.90
47532;DHT22;33273;52.254;7.988;2023-04-30T01:10:31;4.70;99.90
47532;DHT22;33273;52.254;7.988;2023-04-30T01:13:28;4.70;99.90
47532;DHT22;33273;52.254;7.988;2023-04-30T01:16:17;4.60;99.90
47532;DHT22;33273;52.254;7.988;2023-04-30T01:19:18;4.60;99.90
47532;DHT22;33273;52.254;7.988;2023-04-30T01:21:46;4.60;99.90
47532;DHT22;33273;52.254;7.988;2023-04-30T01:30:20;4.40;99.90
47532;DHT22;33273;52.254;7.988;2023-04-30T01:32:47;4.30;99.90
47532;DHT22;33273;52.254;7.988;2023-04-30T01:35:13;4.30;99.90
47532;DHT22;33273;52.254;7.988;2023-04-30T01:40:28;4.30;99.90
47532;DHT22;33273;52.254;7.988;2023-04-30T01:43:49;4.20;99.90
47532;DHT22;33273;52.254;7.988;2023-04-30T01:46:29;4.20;99.90
47532;DHT22;33273;52.254;7.988;2023-04-30T01:49:14;4.10;99.90
47532;DHT22;33273;52.254;7.988;2023-04-30T01:51:44;4.00;99.90
47532;DHT22;33273;52.254;7.988;2023-04-30T01:57:06;4.00;99.90
47532;DHT22;33273;52.254;7.988;2023-04-30T01:59:34;4.00;99.90
47532;DHT22;33273;52.254;7.988;2023-04-30T02:02:02;3.90;99.90
47532;DHT22;33273;52.254;7.988;2023-04-30T02:04:28;4.00;99.90
47532;DHT22;33273;52.254;7.988;2023-04-30T02:06:54;4.00;99.90
47532;DHT22;33273;52.254;7.988;2023-04-30T02:09:21;3.90;99.90
47532;DHT22;33273;52.254;7.988;2023-04-30T02:11:48;4.00;99.90
47532;DHT22;33273;52.254;7.988;2023-04-30T02:14:15;4.00;99.90
47532;DHT22;33273;52.254;7.988;2023-04-30T02:16:40;4.00;99.90
47532;DHT22;33273;52.254;7.988;2023-04-30T02:19:07;3.90;99.90
47532;DHT22;33273;52.254;7.988;2023-04-30T02:21:32;4.00;99.90
47532;DHT22;33273;52.254;7.988;2023-04-30T02:23:58;3.90;99.90
47532;DHT22;33273;52.254;7.988;2023-04-30T02:26:24;3.90;99.90
47532;DHT22;33273;52.254;7.988;2023-04-30T02:28:51;3.90;99.90
47532;DHT22;33273;52.254;7.988;2023-04-30T02:31:17;3.80;99.90
47532;DHT22;33273;52.254;7.988;2023-04-30T02:33:44;3.70;99.90
47532;DHT22;33273;52.254;7.988;2023-04-30T02:36:10;3.70;99.90
47532;DHT22;33273;52.254;7.988;2023-04-30T02:38:36;3.60;99.90
47532;DHT22;33273;52.254;7.988;2023-04-30T02:41:02;3.60;99.90
47532;DHT22;33273;52.254;7.988;2023-04-30T02:43:28;3.60;99.90
47532;DHT22;33273;52.254;7.988;2023-04-30T02:45:54;3.50;99.90
47532;DHT22;33273;52.254;7.988;2023-04-30T02:48:21;3.50;99.90
47532;DHT22;33273;52.254;7.988;2023-04-30T02:50:47;3.50;99.90
47532;DHT22;33273;52.254;7.988;2023-04-30T02:53:13;3.40;99.90
47532;DHT22;33273;52.254;7.988;2023-04-30T02:55:39;3.40;99.90
47532;DHT22;33273;52.254;7.988;2023-04-30T02:58:05;3.30;99.90
47532;DHT22;33273;52.254;7.988;2023-04-30T03:00:31;3.30;99.90
47532;DHT22;33273;52.254;7.988;2023-04-30T03:02:57;3.30;99.90
47532;DHT22;33273;52.254;7.988;2023-04-30T03:05:23;3.30;99.90
47532;DHT22;33273;52.254;7.988;2023-04-30T03:07:50;3.20;99.90
47532;DHT22;33273;52.254;7.988;2023-04-30T03:10:17;3.20;99.90
47532;DHT22;33273;52.254;7.988;2023-04-30T03:12:43;3.10;99.90
47532;DHT22;33273;52.254;7.988;2023-04-30T03:15:10;3.10;99.90
47532;DHT22;33273;52.254;7.988;2023-04-30T03:17:36;3.10;99.90
47532;DHT22;33273;52.254;7.988;2023-04-30T03:20:02;3.10;99.90
47532;DHT22;33273;52.254;7.988;2023-04-30T03:22:29;3.00;99.90
47532;DHT22;33273;52.254;7.988;2023-04-30T03:24:55;3.00;99.90
47532;DHT22;33273;52.254;7.988;2023-04-30T03:27:21;3.00;99.90
47532;DHT22;33273;52.254;7.988;2023-04-30T03:29:49;3.00;99.90
47532;DHT22;33273;52.254;7.988;2023-04-30T03:32:14;2.90;99.90
47532;DHT22;33273;52.254;7.988;2023-04-30T03:34:40;2.90;99.90
47532;DHT22;33273;52.254;7.988;2023-04-30T03:37:06;2.90;99.90
47532;DHT22;33273;52.254;7.988;2023-04-30T03:39:32;2.90;99.90
47532;DHT22;33273;52.254;7.988;2023-04-30T03:41:58;3.00;99.90
47532;DHT22;33273;52.254;7.988;2023-04-30T03:44:24;3.00;99.90
47532;DHT22;33273;52.254;7.988;2023-04-30T03:46:49;3.00;99.90
47532;DHT22;33273;52.254;7.988;2023-04-30T03:49:16;3.10;99.90
47532;DHT22;33273;52.254;7.988;2023-04-30T03:51:41;3.10;99.90
47532;DHT22;33273;52.254;7.988;2023-04-30T03:54:07;3.10;99.90
47532;DHT22;33273;52.254;7.988;2023-04-30T03:56:35;3.10;99.90
47532;DHT22;33273;52.254;7.988;2023-04-30T03:59:02;3.00;99.90
47532;DHT22;33273;52.254;7.988;2023-04-30T04:01:30;2.90;99.90
47532;DHT22;33273;52.254;7.988;2023-04-30T04:03:56;2.80;99.90
47532;DHT22;33273;52.254;7.988;2023-04-30T04:06:22;2.90;99.90
47532;DHT22;33273;52.254;7.988;2023-04-30T04:08:48;2.80;99.90
47532;DHT22;33273;52.254;7.988;2023-04-30T04:11:14;2.80;99.90
47532;DHT22;33273;52.254;7.988;2023-04-30T04:13:40;2.80;99.90
47532;DHT22;33273;52.254;7.988;2023-04-30T04:16:06;2.80;99.90
47532;DHT22;33273;52.254;7.988;2023-04-30T04:18:33;2.80;99.90
47532;DHT22;33273;52.254;7.988;2023-04-30T04:20:59;2.80;99.90
47532;DHT22;33273;52.254;7.988;2023-04-30T04:23:27;2.80;99.90
47532;DHT22;33273;52.254;7.988;2023-04-30T04:25:53;2.80;99.90
47532;DHT22;33273;52.254;7.988;2023-04-30T04:28:20;3.00;99.90
47532;DHT22;33273;52.254;7.988;2023-04-30T04:30:47;3.10;99.90
47532;DHT22;33273;52.254;7.988;2023-04-30T04:33:14;3.40;99.90
47532;DHT22;33273;52.254;7.988;2023-04-30T04:35:40;3.70;99.90
47532;DHT22;33273;52.254;7.988;2023-04-30T04:38:06;4.00;99.90
47532;DHT22;33273;52.254;7.988;2023-04-30T04:40:32;4.70;99.90
47532;DHT22;33273;52.254;7.988;2023-04-30T04:43:00;4.80;99.90
47532;DHT22;33273;52.254;7.988;2023-04-30T04:45:26;5.10;99.90
47532;DHT22;33273;52.254;7.988;2023-04-30T04:47:52;5.50;99.90
47532;DHT22;33273;52.254;7.988;2023-04-30T04:50:18;5.70;99.90
47532;DHT22;33273;52.254;7.988;2023-04-30T04:52:44;6.10;99.90
47532;DHT22;33273;52.254;7.988;2023-04-30T04:55:10;6.60;99.90
47532;DHT22;33273;52.254;7.988;2023-04-30T04:57:36;7.30;98.60
47532;DHT22;33273;52.254;7.988;2023-04-30T05:00:03;7.80;90.60
47532;DHT22;33273;52.254;7.988;2023-04-30T05:02:32;8.40;89.00
47532;DHT22;33273;52.254;7.988;2023-04-30T05:04:59;8.80;78.30
47532;DHT22;33273;52.254;7.988;2023-04-30T05:07:26;8.80;72.60
47532;DHT22;33273;52.254;7.988;2023-04-30T05:09:52;8.90;67.10
47532;DHT22;33273;52.254;7.988;2023-04-30T05:12:18;8.80;65.70
47532;DHT22;33273;52.254;7.988;2023-04-30T05:14:44;9.00;62.60
47532;DHT22;33273;52.254;7.988;2023-04-30T05:17:10;9.10;62.70
47532;DHT22;33273;52.254;7.988;2023-04-30T05:19:36;9.40;65.30
47532;DHT22;33273;52.254;7.988;2023-04-30T05:22:02;9.60;60.80
47532;DHT22;33273;52.254;7.988;2023-04-30T05:24:28;10.10;63.80
47532;DHT22;33273;52.254;7.988;2023-04-30T05:26:54;10.60;60.00
47532;DHT22;33273;52.254;7.988;2023-04-30T05:29:20;10.80;53.60
47532;DHT22;33273;52.254;7.988;2023-04-30T05:31:46;11.00;54.40
47532;DHT22;33273;52.254;7.988;2023-04-30T05:34:13;11.20;53.90
47532;DHT22;33273;52.254;7.988;2023-04-30T05:36:38;11.90;53.40
47532;DHT22;33273;52.254;7.988;2023-04-30T05:39:04;12.40;50.70
47532;DHT22;33273;52.254;7.988;2023-04-30T05:41:30;12.30;47.70
47532;DHT22;33273;52.254;7.988;2023-04-30T05:43:56;13.30;47.10
47532;DHT22;33273;52.254;7.988;2023-04-30T05:46:22;13.80;45.20
47532;DHT22;33273;52.254;7.988;2023-04-30T05:48:48;13.40;43.30
47532;DHT22;33273;52.254;7.988;2023-04-30T05:51:13;14.10;45.00
47532;DHT22;33273;52.254;7.988;2023-04-30T05:53:39;14.40;41.50
47532;DHT22;33273;52.254;7.988;2023-04-30T05:56:05;14.60;42.90
47532;DHT22;33273;52.254;7.988;2023-04-30T05:58:31;14.30;40.30
47532;DHT22;33273;52.254;7.988;2023-04-30T06:00:58;14.00;40.30
47532;DHT22;33273;52.254;7.988;2023-04-30T06:03:24;14.40;40.60
47532;DHT22;33273;52.254;7.988;2023-04-30T06:05:50;14.60;42.30
47532;DHT22;33273;52.254;7.988;2023-04-30T06:08:17;14.40;40.50
47532;DHT22;33273;52.254;7.988;2023-04-30T06:10:43;14.10;38.50
47532;DHT22;33273;52.254;7.988;2023-04-30T06:13:09;13.50;40.10
47532;DHT22;33273;52.254;7.988;2023-04-30T06:15:35;13.10;40.50
47532;DHT22;33273;52.254;7.988;2023-04-30T06:18:02;13.10;42.30
47532;DHT22;33273;52.254;7.988;2023-04-30T06:20:28;13.90;42.20
47532;DHT22;33273;52.254;7.988;2023-04-30T06:22:54;13.90;40.80
47532;DHT22;33273;52.254;7.988;2023-04-30T06:25:19;14.60;39.70
47532;DHT22;33273;52.254;7.988;2023-04-30T06:27:46;13.80;39.30
47532;DHT22;33273;52.254;7.988;2023-04-30T06:30:12;13.80;37.90
47532;DHT22;33273;52.254;7.988;2023-04-30T06:32:39;13.20;40.00
47532;DHT22;33273;52.254;7.988;2023-04-30T06:35:06;12.90;41.90
47532;DHT22;33273;52.254;7.988;2023-04-30T06:37:31;12.30;42.30
47532;DHT22;33273;52.254;7.988;2023-04-30T06:40:03;12.20;42.60
47532;DHT22;33273;52.254;7.988;2023-04-30T06:42:29;11.80;43.10
47532;DHT22;33273;52.254;7.988;2023-04-30T06:45:04;12.00;45.70
47532;DHT22;33273;52.254;7.988;2023-04-30T06:47:32;12.40;43.30
47532;DHT22;33273;52.254;7.988;2023-04-30T06:50:02;12.50;42.70
47532;DHT22;33273;52.254;7.988;2023-04-30T06:52:44;12.30;42.60
47532;DHT22;33273;52.254;7.988;2023-04-30T06:55:10;12.00;43.80
47532;DHT22;33273;52.254;7.988;2023-04-30T06:57:36;11.60;44.50
47532;DHT22;33273;52.254;7.988;2023-04-30T07:00:06;11.20;45.30
47532;DHT22;33273;52.254;7.988;2023-04-30T07:02:33;11.50;47.80
47532;DHT22;33273;52.254;7.988;2023-04-30T07:04:59;11.40;45.70
47532;DHT22;33273;52.254;7.988;2023-04-30T07:07:25;11.20;47.00
47532;DHT22;33273;52.254;7.988;2023-04-30T07:09:52;11.50;48.90
47532;DHT22;33273;52.254;7.988;2023-04-30T07:12:19;11.70;47.20
47532;DHT22;33273;52.254;7.988;2023-04-30T07:14:45;11.80;46.60
47532;DHT22;33273;52.254;7.988;2023-04-30T07:17:13;11.50;46.40
47532;DHT22;33273;52.254;7.988;2023-04-30T07:19:38;11.20;46.70
47532;DHT22;33273;52.254;7.988;2023-04-30T07:22:04;10.90;47.50
47532;DHT22;33273;52.254;7.988;2023-04-30T07:24:30;11.00;48.80
47532;DHT22;33273;52.254;7.988;2023-04-30T07:26:56;10.90;47.10
47532;DHT22;33273;52.254;7.988;2023-04-30T07:29:24;10.80;47.90
47532;DHT22;33273;52.254;7.988;2023-04-30T07:31:50;11.00;49.60
47532;DHT22;33273;52.254;7.988;2023-04-30T07:34:16;11.20;47.40
47532;DHT22;33273;52.254;7.988;2023-04-30T07:36:42;10.80;47.70
47532;DHT22;33273;52.254;7.988;2023-04-30T07:47:00;10.50;46.30
47532;DHT22;33273;52.254;7.988;2023-04-30T07:49:25;10.60;47.50
47532;DHT22;33273;52.254;7.988;2023-04-30T07:51:51;11.00;47.20
47532;DHT22;33273;52.254;7.988;2023-04-30T07:54:17;11.10;46.40
47532;DHT22;33273;52.254;7.988;2023-04-30T07:56:43;10.90;46.50
47532;DHT22;33273;52.254;7.988;2023-04-30T07:59:09;10.80;46.80
47532;DHT22;33273;52.254;7.988;2023-04-30T08:01:35;10.60;45.90
47532;DHT22;33273;52.254;7.988;2023-04-30T08:04:00;10.70;46.30
47532;DHT22;33273;52.254;7.988;2023-04-30T08:06:26;10.30;47.10
47532;DHT22;33273;52.254;7.988;2023-04-30T08:08:53;10.30;47.20
47532;DHT22;33273;52.254;7.988;2023-04-30T08:11:19;10.60;47.60
47532;DHT22;33273;52.254;7.988;2023-04-30T08:13:45;10.50;47.00
47532;DHT22;33273;52.254;7.988;2023-04-30T08:16:11;10.40;48.00
47532;DHT22;33273;52.254;7.988;2023-04-30T08:18:37;10.40;49.30
47532;DHT22;33273;52.254;7.988;2023-04-30T08:21:10;10.50;48.60
47532;DHT22;33273;52.254;7.988;2023-04-30T08:23:36;10.70;47.50
47532;DHT22;33273;52.254;7.988;2023-04-30T08:26:03;10.90;50.10
47532;DHT22;33273;52.254;7.988;2023-04-30T08:28:29;11.40;49.10
47532;DHT22;33273;52.254;7.988;2023-04-30T08:30:56;11.60;46.40
47532;DHT22;33273;52.254;7.988;2023-04-30T08:33:22;11.50;45.30
47532;DHT22;33273;52.254;7.988;2023-04-30T08:35:49;11.30;46.20
47532;DHT22;33273;52.254;7.988;2023-04-30T08:38:15;11.40;47.20
47532;DHT22;33273;52.254;7.988;2023-04-30T08:40:48;11.40;44.10
47532;DHT22;33273;52.254;7.988;2023-04-30T08:43:17;11.40;44.20
47532;DHT22;33273;52.254;7.988;2023-04-30T08:45:44;11.30;44.80
47532;DHT22;33273;52.254;7.988;2023-04-30T08:48:10;11.40;45.10
47532;DHT22;33273;52.254;7.988;2023-04-30T08:50:39;11.30;44.40
47532;DHT22;33273;52.254;7.988;2023-04-30T08:53:07;11.40;44.70
47532;DHT22;33273;52.254;7.988;2023-04-30T08:55:35;11.40;43.50
47532;DHT22;33273;52.254;7.988;2023-04-30T08:58:04;11.50;44.10
47532;DHT22;33273;52.254;7.988;2023-04-30T09:00:31;11.60;44.60
47532;DHT22;33273;52.254;7.988;2023-04-30T09:02:57;11.70;43.10
47532;DHT22;33273;52.254;7.988;2023-04-30T09:05:26;11.50;42.70
47532;DHT22;33273;52.254;7.988;2023-04-30T09:07:52;11.80;41.80
47532;DHT22;33273;52.254;7.988;2023-04-30T09:10:21;11.90;41.50
47532;DHT22;33273;52.254;7.988;2023-04-30T09:13:06;11.90;44.90
47532;DHT22;33273;52.254;7.988;2023-04-30T09:15:34;11.90;41.80
47532;DHT22;33273;52.254;7.988;2023-04-30T09:18:13;12.20;41.50
47532;DHT22;33273;52.254;7.988;2023-04-30T09:21:00;12.20;41.10
47532;DHT22;33273;52.254;7.988;2023-04-30T09:23:28;12.20;39.50
47532;DHT22;33273;52.254;7.988;2023-04-30T09:25:54;12.20;42.50
47532;DHT22;33273;52.254;7.988;2023-04-30T09:28:22;12.40;42.40
47532;DHT22;33273;52.254;7.988;2023-04-30T09:30:50;12.40;38.80
47532;DHT22;33273;52.254;7.988;2023-04-30T09:33:16;12.30;38.30
47532;DHT22;33273;52.254;7.988;2023-04-30T09:35:42;12.30;39.40
47532;DHT22;33273;52.254;7.988;2023-04-30T09:38:25;12.50;39.10
47532;DHT22;33273;52.254;7.988;2023-04-30T09:40:53;12.40;38.00
47532;DHT22;33273;52.254;7.988;2023-04-30T09:43:18;12.40;38.10
47532;DHT22;33273;52.254;7.988;2023-04-30T09:45:46;12.40;38.30
47532;DHT22;33273;52.254;7.988;2023-04-30T09:48:17;12.30;37.50
47532;DHT22;33273;52.254;7.988;2023-04-30T09:50:43;12.40;37.60
47532;DHT22;33273;52.254;7.988;2023-04-30T09:53:11;12.60;37.40
47532;DHT22;33273;52.254;7.988;2023-04-30T09:55:47;12.50;37.40
47532;DHT22;33273;52.254;7.988;2023-04-30T09:58:14;12.80;37.20
47532;DHT22;33273;52.254;7.988;2023-04-30T10:00:42;13.00;37.70
47532;DHT22;33273;52.254;7.988;2023-04-30T10:03:11;12.80;35.20
47532;DHT22;33273;52.254;7.988;2023-04-30T10:05:42;12.90;36.40
47532;DHT22;33273;52.254;7.988;2023-04-30T10:08:32;12.90;36.40
47532;DHT22;33273;52.254;7.988;2023-04-30T10:14:11;13.30;36.20
47532;DHT22;33273;52.254;7.988;2023-04-30T10:16:36;13.40;36.50
47532;DHT22;33273;52.254;7.988;2023-04-30T10:19:11;13.20;35.20
47532;DHT22;33273;52.254;7.988;2023-04-30T10:21:39;13.30;35.30
47532;DHT22;33273;52.254;7.988;2023-04-30T10:24:09;13.30;35.10
47532;DHT22;33273;52.254;7.988;2023-04-30T10:26:36;13.30;34.00
47532;DHT22;33273;52.254;7.988;2023-04-30T10:29:03;13.40;33.20
47532;DHT22;33273;52.254;7.988;2023-04-30T10:31:30;13.50;33.30
47532;DHT22;33273;52.254;7.988;2023-04-30T10:36:53;13.60;33.40
47532;DHT22;33273;52.254;7.988;2023-04-30T10:39:25;13.80;35.00
47532;DHT22;33273;52.254;7.988;2023-04-30T10:42:01;14.20;34.90
47532;DHT22;33273;52.254;7.988;2023-04-30T10:44:35;14.10;34.00
47532;DHT22;33273;52.254;7.988;2023-04-30T10:47:02;14.10;32.70
47532;DHT22;33273;52.254;7.988;2023-04-30T10:49:29;14.10;33.50
47532;DHT22;33273;52.254;7.988;2023-04-30T10:52:01;14.20;35.40
47532;DHT22;33273;52.254;7.988;2023-04-30T10:54:30;14.50;34.50
47532;DHT22;33273;52.254;7.988;2023-04-30T10:57:10;14.70;33.30
47532;DHT22;33273;52.254;7.988;2023-04-30T10:59:37;14.80;32.40
47532;DHT22;33273;52.254;7.988;2023-04-30T11:02:10;14.60;31.30
47532;DHT22;33273;52.254;7.988;2023-04-30T11:07:30;14.30;33.20
47532;DHT22;33273;52.254;7.988;2023-04-30T11:09:57;14.20;32.80
47532;DHT22;33273;52.254;7.988;2023-04-30T11:12:25;14.30;33.60
47532;DHT22;33273;52.254;7.988;2023-04-30T11:15:06;14.30;32.90
47532;DHT22;33273;52.254;7.988;2023-04-30T11:17:37;14.30;33.20
47532;DHT22;33273;52.254;7.988;2023-04-30T11:20:03;14.60;34.80
47532;DHT22;33273;52.254;7.988;2023-04-30T11:22:29;14.60;32.60
47532;DHT22;33273;52.254;7.988;2023-04-30T11:25:08;14.50;32.70
47532;DHT22;33273;52.254;7.988;2023-04-30T11:27:36;14.50;33.50
47532;DHT22;33273;52.254;7.988;2023-04-30T11:30:10;14.70;32.60
47532;DHT22;33273;52.254;7.988;2023-04-30T11:32:38;14.70;32.50
47532;DHT22;33273;52.254;7.988;2023-04-30T11:35:05;14.70;30.90
47532;DHT22;33273;52.254;7.988;2023-04-30T11:37:36;14.70;31.10
47532;DHT22;33273;52.254;7.988;2023-04-30T11:40:09;14.50;31.30
47532;DHT22;33273;52.254;7.988;2023-04-30T11:42:37;14.70;32.70
47532;DHT22;33273;52.254;7.988;2023-04-30T11:45:11;14.80;32.30
47532;DHT22;33273;52.254;7.988;2023-04-30T11:47:41;15.00;32.50
47532;DHT22;33273;52.254;7.988;2023-04-30T11:50:15;15.10;31.50
47532;DHT22;33273;52.254;7.988;2023-04-30T11:52:47;15.10;31.20
47532;DHT22;33273;52.254;7.988;2023-04-30T11:55:17;15.10;31.80
47532;DHT22;33273;52.254;7.988;2023-04-30T11:57:45;15.00;31.70
47532;DHT22;33273;52.254;7.988;2023-04-30T12:00:13;15.10;30.90
47532;DHT22;33273;52.254;7.988;2023-04-30T12:02:41;15.30;33.10
47532;DHT22;33273;52.254;7.988;2023-04-30T12:05:15;15.30;30.90
47532;DHT22;33273;52.254;7.988;2023-04-30T12:07:55;15.30;30.50
47532;DHT22;33273;52.254;7.988;2023-04-30T12:10:22;15.10;31.00
47532;DHT22;33273;52.254;7.988;2023-04-30T12:12:49;15.00;30.70
47532;DHT22;33273;52.254;7.988;2023-04-30T12:15:16;14.90;31.10
47532;DHT22;33273;52.254;7.988;2023-04-30T12:17:43;15.00;32.70
47532;DHT22;33273;52.254;7.988;2023-04-30T12:20:11;15.10;32.60
47532;DHT22;33273;52.254;7.988;2023-04-30T12:22:38;15.20;30.70
47532;DHT22;33273;52.254;7.988;2023-04-30T12:25:11;15.20;32.30
47532;DHT22;33273;52.254;7.988;2023-04-30T12:27:45;15.10;30.70
47532;DHT22;33273;52.254;7.988;2023-04-30T12:30:11;15.20;32.30
47532;DHT22;33273;52.254;7.988;2023-04-30T12:32:42;15.20;31.90
47532;DHT22;33273;52.254;7.988;2023-04-30T12:35:17;15.00;32.40
47532;DHT22;33273;52.254;7.988;2023-04-30T12:37:52;15.00;33.50
47532;DHT22;33273;52.254;7.988;2023-04-30T12:40:20;15.00;33.80
47532;DHT22;33273;52.254;7.988;2023-04-30T12:42:46;15.20;32.90
47532;DHT22;33273;52.254;7.988;2023-04-30T12:45:40;15.20;33.50
47532;DHT22;33273;52.254;7.988;2023-04-30T12:48:00;15.10;32.60
47532;DHT22;33273;52.254;7.988;2023-04-30T12:50:26;15.10;33.60
47532;DHT22;33273;52.254;7.988;2023-04-30T12:52:52;15.20;32.60
47532;DHT22;33273;52.254;7.988;2023-04-30T12:55:19;15.30;31.90
47532;DHT22;33273;52.254;7.988;2023-04-30T12:58:08;15.30;31.30
47532;DHT22;33273;52.254;7.988;2023-04-30T13:00:44;15.10;31.80
47532;DHT22;33273;52.254;7.988;2023-04-30T13:03:11;15.10;32.80
47532;DHT22;33273;52.254;7.988;2023-04-30T13:05:38;15.20;32.40
47532;DHT22;33273;52.254;7.988;2023-04-30T13:08:05;15.20;32.00
47532;DHT22;33273;52.254;7.988;2023-04-30T13:10:31;15.20;32.50
47532;DHT22;33273;52.254;7.988;2023-04-30T13:12:57;15.20;33.90
47532;DHT22;33273;52.254;7.988;2023-04-30T13:15:24;15.00;32.50
47532;DHT22;33273;52.254;7.988;2023-04-30T13:17:50;15.00;32.80
47532;DHT22;33273;52.254;7.988;2023-04-30T13:20:16;15.00;33.30
47532;DHT22;33273;52.254;7.988;2023-04-30T13:22:41;15.00;33.70
47532;DHT22;33273;52.254;7.988;2023-04-30T13:25:08;14.90;33.60
47532;DHT22;33273;52.254;7.988;2023-04-30T13:27:33;15.00;34.70
47532;DHT22;33273;52.254;7.988;2023-04-30T13:30:01;15.20;35.10
47532;DHT22;33273;52.254;7.988;2023-04-30T13:32:27;15.30;33.50
47532;DHT22;33273;52.254;7.988;2023-04-30T13:34:52;15.20;32.50
47532;DHT22;33273;52.254;7.988;2023-04-30T13:37:20;15.20;33.50
47532;DHT22;33273;52.254;7.988;2023-04-30T13:39:46;15.20;33.30
47532;DHT22;33273;52.254;7.988;2023-04-30T13:42:17;15.10;32.80
47532;DHT22;33273;52.254;7.988;2023-04-30T13:44:44;15.10;32.30
47532;DHT22;33273;52.254;7.988;2023-04-30T13:47:12;15.10;33.80
47532;DHT22;33273;52.254;7.988;2023-04-30T13:49:38;15.20;33.20
47532;DHT22;33273;52.254;7.988;2023-04-30T13:52:04;15.30;33.90
47532;DHT22;33273;52.254;7.988;2023-04-30T13:54:29;15.30;33.20
47532;DHT22;33273;52.254;7.988;2023-04-30T13:56:57;15.20;32.30
47532;DHT22;33273;52.254;7.988;2023-04-30T13:59:24;15.20;33.30
47532;DHT22;33273;52.254;7.988;2023-04-30T14:01:51;15.30;34.10
47532;DHT22;33273;52.254;7.988;2023-04-30T14:04:17;15.40;32.30
47532;DHT22;33273;52.254;7.988;2023-04-30T14:06:44;15.50;32.60
47532;DHT22;33273;52.254;7.988;2023-04-30T14:09:10;15.40;32.10
47532;DHT22;33273;52.254;7.988;2023-04-30T14:11:38;15.40;33.00
47532;DHT22;33273;52.254;7.988;2023-04-30T14:14:05;15.40;32.30
47532;DHT22;33273;52.254;7.988;2023-04-30T14:16:31;15.30;33.00
47532;DHT22;33273;52.254;7.988;2023-04-30T14:18:57;15.50;33.50
47532;DHT22;33273;52.254;7.988;2023-04-30T14:21:22;15.70;34.60
47532;DHT22;33273;52.254;7.988;2023-04-30T14:23:48;15.70;32.40
47532;DHT22;33273;52.254;7.988;2023-04-30T14:26:16;15.60;32.30
47532;DHT22;33273;52.254;7.988;2023-04-30T14:28:48;15.40;31.90
47532;DHT22;33273;52.254;7.988;2023-04-30T14:31:14;15.40;32.40
47532;DHT22;33273;52.254;7.988;2023-04-30T14:33:40;15.50;33.10
47532;DHT22;33273;52.254;7.988;2023-04-30T14:36:07;15.60;32.10
47532;DHT22;33273;52.254;7.988;2023-04-30T14:38:33;15.60;31.50
47532;DHT22;33273;52.254;7.988;2023-04-30T14:40:59;15.60;31.50
47532;DHT22;33273;52.254;7.988;2023-04-30T14:43:26;15.60;32.20
47532;DHT22;33273;52.254;7.988;2023-04-30T14:45:52;15.60;32.20
47532;DHT22;33273;52.254;7.988;2023-04-30T14:48:18;15.60;32.70
47532;DHT22;33273;52.254;7.988;2023-04-30T14:50:46;15.60;32.90
47532;DHT22;33273;52.254;7.988;2023-04-30T14:53:12;15.50;32.30
47532;DHT22;33273;52.254;7.988;2023-04-30T14:55:38;15.60;32.90
47532;DHT22;33273;52.254;7.988;2023-04-30T14:58:06;15.80;32.50
47532;DHT22;33273;52.254;7.988;2023-04-30T15:00:31;15.80;32.00
47532;DHT22;33273;52.254;7.988;2023-04-30T15:02:58;15.60;31.70
47532;DHT22;33273;52.254;7.988;2023-04-30T15:05:25;15.50;32.10
47532;DHT22;33273;52.254;7.988;2023-04-30T15:07:51;15.50;32.40
47532;DHT22;33273;52.254;7.988;2023-04-30T15:10:17;15.60;32.20
47532;DHT22;33273;52.254;7.988;2023-04-30T15:12:44;15.60;32.00
47532;DHT22;33273;52.254;7.988;2023-04-30T15:15:10;15.60;31.10
47532;DHT22;33273;52.254;7.988;2023-04-30T15:17:37;15.60;32.10
47532;DHT22;33273;52.254;7.988;2023-04-30T15:20:04;15.60;32.30
47532;DHT22;33273;52.254;7.988;2023-04-30T15:22:30;15.60;31.90
47532;DHT22;33273;52.254;7.988;2023-04-30T15:24:58;15.60;31.90
47532;DHT22;33273;52.254;7.988;2023-04-30T15:27:26;15.50;31.50
47532;DHT22;33273;52.254;7.988;2023-04-30T15:29:52;15.50;30.80
47532;DHT22;33273;52.254;7.988;2023-04-30T15:32:18;15.50;31.60
47532;DHT22;33273;52.254;7.988;2023-04-30T15:34:44;15.50;32.30
47532;DHT22;33273;52.254;7.988;2023-04-30T15:37:13;15.50;32.50
47532;DHT22;33273;52.254;7.988;2023-04-30T15:39:39;15.50;31.50
47532;DHT22;33273;52.254;7.988;2023-04-30T15:42:05;15.40;31.90
47532;DHT22;33273;52.254;7.988;2023-04-30T15:44:31;15.40;31.40
47532;DHT22;33273;52.254;7.988;2023-04-30T15:46:57;15.40;32.40
47532;DHT22;33273;52.254;7.988;2023-04-30T15:49:24;15.30;32.30
47532;DHT22;33273;52.254;7.988;2023-04-30T15:51:50;15.30;32.10
47532;DHT22;33273;52.254;7.988;2023-04-30T15:54:17;15.40;31.60
47532;DHT22;33273;52.254;7.988;2023-04-30T15:56:43;15.30;32.70
47532;DHT22;33273;52.254;7.988;2023-04-30T15:59:09;15.30;32.40
47532;DHT22;33273;52.254;7.988;2023-04-30T16:01:35;15.30;32.60
47532;DHT22;33273;52.254;7.988;2023-04-30T16:04:01;15.40;34.30
47532;DHT22;33273;52.254;7.988;2023-04-30T16:06:28;15.40;32.40
47532;DHT22;33273;52.254;7.988;2023-04-30T16:08:56;15.40;33.30